Azusa, California
Current Conditions -  °F | °C
As of 4:47 PM on Wednesday 22 Oct 2014 (Local Time) from KPOC Reporting Station
Clear Clear  
Wind Chill: 84°   Ceiling: Unl
Heat Index: 84°   Visibility: 10mi
Dew Point: 46°   Wind: 8mph
Humidity: 27%   Direction: 230°SW
Pressure: 29.93"   Gusts: NA
Location:  34.13°N, 117.9°W
Report Text: KPOC 222347Z 23007KT 10SM CLR 29/08 A2993
Loading
Personal Weather Stations






























Interactive Weather Map
Tropical Storm Tracking
New forecast layout! Learn more

10-Day Weather Forecast

Advertisements
Track Severe Weather on mobile